Time;durP1;ratioP1;P1;durP2;ratioP2;P2;SDS_P1;SDS_P2;PMS_P1;PMS_P2;Temp;Humidity;BMP_temperature;BMP_pressure;BME280_temperature;BME280_humidity;BME280_pressure;Samples;Min_cycle;Max_cycle;Signal;HPM_P1;HPM_P2
2021/04/15 00:09:22;;;;;;;15.03;12.47;;;;;;;2.76;100.00;100725.31;20806504;28;20240;-57
2021/04/15 00:19:22;;;;;;;15.13;11.50;;;;;;;2.63;100.00;100716.00;20805873;28;20296;-59
2021/04/15 00:29:23;;;;;;;14.65;11.48;;;;;;;2.54;100.00;100717.94;20807013;28;20300;-59
2021/04/15 00:39:23;;;;;;;14.27;10.20;;;;;;;2.50;100.00;100718.94;20806439;28;20243;-57
2021/04/15 00:49:30;;;;;;;15.43;11.83;;;;;;;2.60;100.00;100718.69;20812087;28;20216;-57
2021/04/15 00:59:31;;;;;;;13.73;11.27;;;;;;;2.61;100.00;100709.91;20820145;28;20232;-58
2021/04/15 01:09:31;;;;;;;15.73;12.63;;;;;;;2.65;100.00;100704.53;20820505;28;20307;-57
2021/04/15 01:30:27;;;;;;;17.00;13.20;;;;;;;2.67;100.00;100692.16;20618351;27;7793219;-57
2021/04/15 01:40:37;;;;;;;14.53;11.60;;;;;;;2.65;100.00;100672.03;20760474;28;20221;-57
2021/04/15 01:50:45;;;;;;;19.03;11.83;;;;;;;2.68;100.00;100667.53;20796221;28;20220;-59
2021/04/15 02:00:49;;;;;;;20.50;13.10;;;;;;;2.78;100.00;100663.75;20794257;28;20223;-56
2021/04/15 02:10:54;;;;;;;20.70;13.77;;;;;;;2.79;100.00;100659.34;20793018;28;20220;-59
2021/04/15 02:20:58;;;;;;;18.13;12.20;;;;;;;2.77;100.00;100643.59;20802548;28;20293;-57
2021/04/15 02:31:17;;;;;;;13.33;11.03;;;;;;;2.76;100.00;100652.41;20874011;28;20311;-56
2021/04/15 02:41:24;;;;;;;10.27;9.17;;;;;;;2.72;100.00;100650.75;20818059;28;20311;-58
2021/04/15 02:51:35;;;;;;;12.57;10.23;;;;;;;2.68;100.00;100632.41;20817636;28;20235;-57
2021/04/15 03:01:39;;;;;;;10.43;9.33;;;;;;;2.63;100.00;100644.88;20816982;28;20251;-57
2021/04/15 03:11:50;;;;;;;12.97;10.30;;;;;;;2.64;100.00;100630.78;20816303;28;20236;-57
2021/04/15 03:22:17;;;;;;;10.20;8.40;;;;;;;2.54;100.00;100636.28;20814374;28;20715;-57
2021/04/15 03:32:34;;;;;;;11.83;9.63;;;;;;;2.53;100.00;100633.72;20814319;28;20216;-62
2021/04/15 03:42:41;;;;;;;8.40;7.60;;;;;;;2.35;100.00;100629.78;20815313;28;20307;-57
2021/04/15 03:53:05;;;;;;;11.47;8.50;;;;;;;2.36;100.00;100625.38;20812072;28;20239;-58
2021/04/15 04:03:11;;;;;;;12.07;9.10;;;;;;;2.27;100.00;100629.13;20811402;28;20713;-57
2021/04/15 04:13:20;;;;;;;11.83;9.00;;;;;;;2.28;100.00;100628.22;20810776;28;20681;-57
2021/04/15 04:33:45;;;;;;;13.40;9.37;;;;;;;2.45;100.00;100636.53;20621451;27;7761955;-58
2021/04/15 04:44:04;;;;;;;13.07;9.30;;;;;;;2.46;100.00;100637.38;20877290;28;20220;-58
2021/04/15 04:54:05;;;;;;;8.70;7.43;;;;;;;2.49;100.00;100634.69;20841796;28;20235;-58
2021/04/15 05:04:05;;;;;;;18.60;10.87;;;;;;;2.65;100.00;100632.53;20822490;28;20267;-59
2021/04/15 05:14:07;;;;;;;11.37;8.37;;;;;;;2.69;100.00;100634.16;20875233;28;20228;-63
2021/04/15 05:24:12;;;;;;;8.83;7.77;;;;;;;2.75;100.00;100634.00;20879069;28;20708;-63
2021/04/15 05:34:33;;;;;;;9.27;8.27;;;;;;;2.75;100.00;100634.00;20897708;28;20228;-63
2021/04/15 05:44:46;;;;;;;10.23;8.23;;;;;;;2.93;100.00;100629.97;20806823;28;20335;-58
2021/04/15 05:54:47;;;;;;;8.90;7.73;;;;;;;3.06;100.00;100624.31;20786911;28;20312;-58
2021/04/15 06:05:16;;;;;;;8.43;7.00;;;;;;;3.22;100.00;100630.00;20852637;28;20227;-64
2021/04/15 06:15:53;;;;;;;11.87;8.67;;;;;;;3.36;100.00;100616.41;20848492;28;20282;-62
2021/04/15 06:25:54;;;;;;;7.37;6.53;;;;;;;3.37;100.00;100607.59;20810138;28;20270;-60
2021/04/15 06:35:55;;;;;;;10.30;8.27;;;;;;;3.58;100.00;100604.28;20868332;28;20340;-59
2021/04/15 06:46:14;;;;;;;10.23;8.87;;;;;;;3.74;100.00;100613.47;20868008;28;20700;-59
2021/04/15 06:56:42;;;;;;;12.03;9.80;;;;;;;3.94;100.00;100605.78;20863822;28;20986;-60
2021/04/15 07:06:54;;;;;;;14.17;10.37;;;;;;;4.18;100.00;100613.78;20824711;28;20216;-60
2021/04/15 07:17:17;;;;;;;16.40;12.80;;;;;;;4.14;100.00;100617.44;20860242;28;20455;-59
2021/04/15 07:27:42;;;;;;;23.90;15.43;;;;;;;4.22;100.00;100612.78;20837880;28;20220;-59
2021/04/15 07:38:23;;;;;;;20.03;16.17;;;;;;;4.21;100.00;100624.25;20860938;28;20323;-61
2021/04/15 07:48:58;;;;;;;21.83;13.63;;;;;;;4.30;100.00;100630.09;20836477;28;20236;-62
2021/04/15 07:59:04;;;;;;;12.40;9.77;;;;;;;4.44;100.00;100632.28;20871472;28;20259;-59
2021/04/15 08:09:40;;;;;;;15.33;12.50;;;;;;;4.64;100.00;100635.09;20854329;28;20220;-60
2021/04/15 08:19:52;;;;;;;17.10;13.40;;;;;;;4.52;100.00;100630.22;20874995;28;20259;-58
2021/04/15 08:30:30;;;;;;;19.27;13.70;;;;;;;4.56;100.00;100637.16;20854714;28;20236;-58
2021/04/15 08:40:42;;;;;;;15.83;12.83;;;;;;;4.75;100.00;100640.00;20833229;28;20634;-58
2021/04/15 08:50:49;;;;;;;20.53;13.73;;;;;;;4.80;100.00;100631.91;20851692;28;20252;-58
2021/04/15 09:01:25;;;;;;;22.47;14.83;;;;;;;4.95;100.00;100642.78;20850168;28;20259;-61
2021/04/15 09:11:39;;;;;;;21.27;15.50;;;;;;;4.92;100.00;100640.25;20857361;28;20236;-64
2021/04/15 09:21:55;;;;;;;12.63;10.90;;;;;;;4.88;100.00;100648.34;20851119;28;20226;-62
2021/04/15 09:32:14;;;;;;;21.77;14.50;;;;;;;5.17;100.00;100634.09;20859148;28;20317;-70
2021/04/15 09:42:27;;;;;;;12.50;10.20;;;;;;;5.10;100.00;100636.06;20863544;28;20232;-69
2021/04/15 09:52:52;;;;;;;13.53;10.27;;;;;;;5.15;100.00;100646.50;20875307;28;20229;-58
2021/04/15 10:03:06;;;;;;;10.63;8.73;;;;;;;5.35;100.00;100628.94;20850098;28;20226;-60
2021/04/15 10:13:25;;;;;;;14.97;11.10;;;;;;;5.26;100.00;100639.88;20862117;28;20232;-66
2021/04/15 10:23:44;;;;;;;14.60;11.83;;;;;;;5.28;100.00;100646.00;20854334;28;20234;-59
2021/04/15 10:34:12;;;;;;;13.83;10.83;;;;;;;5.40;100.00;100653.47;20855418;28;20233;-58
2021/04/15 10:44:29;;;;;;;18.27;11.20;;;;;;;5.37;100.00;100643.00;20852118;28;20232;-59
2021/04/15 10:54:39;;;;;;;11.23;9.00;;;;;;;5.46;100.00;100640.91;20837552;28;20227;-59
2021/04/15 11:04:40;;;;;;;13.00;10.30;;;;;;;5.74;100.00;100654.81;20857530;28;20224;-59
2021/04/15 11:14:44;;;;;;;14.57;11.80;;;;;;;5.72;100.00;100648.72;20843082;28;20250;-57
2021/04/15 11:24:46;;;;;;;17.20;12.70;;;;;;;5.66;100.00;100657.78;20867009;28;20233;-57
2021/04/15 11:35:13;;;;;;;10.53;9.20;;;;;;;5.83;100.00;100657.09;20830460;28;20216;-57
2021/04/15 11:45:30;;;;;;;14.80;11.40;;;;;;;6.08;100.00;100655.22;20865943;28;20318;-58
2021/04/15 11:55:35;;;;;;;16.80;12.87;;;;;;;6.17;100.00;100651.34;20849416;28;20243;-58
2021/04/15 12:05:38;;;;;;;12.43;9.80;;;;;;;6.08;100.00;100657.00;20859514;28;20235;-57
2021/04/15 12:15:44;;;;;;;10.10;8.87;;;;;;;5.87;100.00;100648.13;20852882;28;20221;-56
2021/04/15 12:26:02;;;;;;;16.43;12.50;;;;;;;6.19;100.00;100654.78;20857974;28;20226;-62
2021/04/15 12:36:16;;;;;;;22.80;14.67;;;;;;;6.19;100.00;100660.09;20845642;28;20746;-56
2021/04/15 12:46:21;;;;;;;21.10;13.77;;;;;;;6.14;100.00;100662.09;20846312;28;20219;-55
2021/04/15 12:56:32;;;;;;;17.37;12.90;;;;;;;5.87;100.00;100663.16;20881818;28;20223;-58
2021/04/15 13:07:01;;;;;;;21.33;14.13;;;;;;;5.65;100.00;100664.00;20870134;28;20228;-54
2021/04/15 13:17:03;;;;;;;15.90;13.23;;;;;;;5.80;100.00;100654.56;20897314;28;20230;-57
2021/04/15 13:27:38;;;;;;;23.83;16.83;;;;;;;5.93;100.00;100658.47;20875011;28;20238;-61
2021/04/15 13:37:45;;;;;;;18.03;14.90;;;;;;;5.85;100.00;100662.34;20890734;28;20265;-56
2021/04/15 13:47:50;;;;;;;21.30;16.03;;;;;;;5.86;100.00;100666.72;20877793;28;20273;-59
2021/04/15 13:57:51;;;;;;;18.17;14.80;;;;;;;5.84;100.00;100669.41;20882416;28;20230;-63
2021/04/15 14:07:52;;;;;;;21.67;15.70;;;;;;;5.89;100.00;100662.19;20868187;28;20233;-54
2021/04/15 14:18:18;;;;;;;24.40;18.23;;;;;;;5.97;100.00;100665.41;20876946;28;20219;-54
2021/04/15 14:28:28;;;;;;;25.10;18.63;;;;;;;5.97;100.00;100669.81;20888070;28;20238;-54
2021/04/15 14:38:37;;;;;;;40.83;23.77;;;;;;;6.01;100.00;100677.59;20868359;28;20215;-54
2021/04/15 14:48:37;;;;;;;22.40;16.77;;;;;;;5.92;100.00;100672.66;20886000;28;20935;-54
2021/04/15 14:58:39;;;;;;;32.60;20.08;;;;;;;5.96;100.00;100668.97;20866725;28;20273;-57
2021/04/15 15:08:42;;;;;;;30.73;20.90;;;;;;;5.99;100.00;100662.69;20886921;28;20700;-54
2021/04/15 15:18:47;;;;;;;30.50;20.97;;;;;;;5.85;100.00;100647.31;20870685;28;20785;-54
2021/04/15 15:28:55;;;;;;;36.93;24.00;;;;;;;5.94;100.00;100648.75;20861885;28;20230;-54
2021/04/15 15:38:56;;;;;;;37.77;25.03;;;;;;;5.98;100.00;100648.59;20876595;28;20231;-55
2021/04/15 15:48:57;;;;;;;56.87;29.73;;;;;;;5.99;100.00;100658.25;20873723;28;20227;-54
2021/04/15 15:59:13;;;;;;;69.17;32.87;;;;;;;6.02;100.00;100650.19;20875238;28;20473;-57
2021/04/15 16:09:16;;;;;;;47.83;28.37;;;;;;;6.13;100.00;100645.31;20862869;28;20227;-63
2021/04/15 16:19:16;;;;;;;92.97;41.70;;;;;;;6.16;100.00;100646.13;20881924;28;20233;-54
2021/04/15 16:29:17;;;;;;;55.30;35.17;;;;;;;6.18;100.00;100649.53;20841114;28;20239;-56
2021/04/15 16:39:19;;;;;;;58.10;32.50;;;;;;;6.12;100.00;100648.91;20852689;28;20234;-58
2021/04/15 16:49:27;;;;;;;40.37;26.87;;;;;;;6.13;100.00;100644.47;20820425;28;20762;-55
2021/04/15 16:59:28;;;;;;;42.27;27.90;;;;;;;5.99;100.00;100637.06;20820646;28;20309;-55
2021/04/15 17:09:29;;;;;;;72.83;35.47;;;;;;;6.14;100.00;100652.34;20817228;28;20242;-53
2021/04/15 17:19:30;;;;;;;51.30;30.17;;;;;;;6.24;100.00;100649.31;20818867;28;20223;-53
2021/04/15 17:29:32;;;;;;;91.13;40.60;;;;;;;6.26;100.00;100658.94;20816728;28;20481;-54
2021/04/15 17:39:33;;;;;;;164.27;67.20;;;;;;;6.26;100.00;100664.22;20823741;28;20844;-55
2021/04/15 17:49:35;;;;;;;125.30;63.10;;;;;;;6.23;100.00;100666.13;20839342;28;20235;-53
2021/04/15 17:59:36;;;;;;;66.87;39.77;;;;;;;6.14;100.00;100673.53;20816924;28;20226;-54
2021/04/15 18:09:36;;;;;;;76.77;40.80;;;;;;;6.14;100.00;100676.19;20827559;28;20723;-59
2021/04/15 18:19:38;;;;;;;59.30;35.23;;;;;;;6.12;100.00;100682.47;20808820;28;20269;-55
2021/04/15 18:29:39;;;;;;;76.63;37.43;;;;;;;6.12;100.00;100675.38;20824088;28;21098;-55
2021/04/15 18:39:40;;;;;;;55.93;32.80;;;;;;;6.14;100.00;100677.97;20819523;28;20261;-55
2021/04/15 18:49:41;;;;;;;53.67;33.80;;;;;;;6.11;100.00;100673.66;20817353;28;20846;-55
2021/04/15 18:59:42;;;;;;;118.47;49.67;;;;;;;6.21;100.00;100683.88;20824315;28;20236;-56
2021/04/15 19:09:49;;;;;;;122.57;50.03;;;;;;;6.23;100.00;100671.44;20811332;28;20231;-55
2021/04/15 19:19:50;;;;;;;108.30;44.90;;;;;;;6.12;100.00;100670.09;20831285;28;20231;-58
2021/04/15 19:29:50;;;;;;;72.53;38.57;;;;;;;6.03;100.00;100662.53;20838857;28;20770;-62
2021/04/15 19:39:52;;;;;;;73.90;52.50;;;;;;;6.48;100.00;100666.84;20835776;28;20530;-62
2021/04/15 19:49:53;;;;;;;57.60;33.67;;;;;;;6.03;100.00;100659.88;20838210;28;20231;-58
2021/04/15 19:59:53;;;;;;;54.33;30.47;;;;;;;5.90;100.00;100653.34;20838795;28;20230;-56
2021/04/15 20:09:53;;;;;;;77.07;42.15;;;;;;;5.75;100.00;100643.31;20839257;28;20302;-60
2021/04/15 20:19:54;;;;;;;70.83;39.60;;;;;;;5.69;100.00;100633.81;20838478;28;20248;-56
2021/04/15 20:29:56;;;;;;;74.50;43.70;;;;;;;5.70;100.00;100639.97;20814466;28;20264;-55
2021/04/15 20:39:56;;;;;;;61.70;36.60;;;;;;;5.66;100.00;100643.66;20837190;28;20252;-55
2021/04/15 20:49:57;;;;;;;63.08;39.88;;;;;;;5.67;100.00;100635.69;20836286;28;20227;-56
2021/04/15 20:59:57;;;;;;;62.40;38.43;;;;;;;5.63;100.00;100627.91;20831257;28;20235;-59
2021/04/15 21:09:58;;;;;;;57.63;37.83;;;;;;;5.66;100.00;100633.09;20817113;28;20254;-54
2021/04/15 21:19:58;;;;;;;58.87;37.80;;;;;;;5.67;100.00;100618.94;20826696;28;20223;-54
2021/04/15 21:29:59;;;;;;;61.50;35.47;;;;;;;5.65;100.00;100613.69;20824937;28;20479;-55
2021/04/15 21:39:59;;;;;;;47.83;31.03;;;;;;;5.62;100.00;100612.94;20825526;28;20247;-55
2021/04/15 21:50:00;;;;;;;56.07;30.97;;;;;;;5.60;100.00;100612.13;20824473;28;20485;-55
2021/04/15 22:00:07;;;;;;;58.50;32.63;;;;;;;5.66;100.00;100612.78;20823816;28;20238;-55
2021/04/15 22:10:09;;;;;;;45.87;28.40;;;;;;;5.66;100.00;100601.31;20822917;28;20760;-55
2021/04/15 22:20:23;;;;;;;49.87;29.73;;;;;;;5.65;100.00;100604.88;20819761;28;20227;-58
2021/04/15 22:30:25;;;;;;;40.50;28.73;;;;;;;5.58;100.00;100588.34;20820037;28;20262;-55
2021/04/15 22:40:29;;;;;;;44.93;29.30;;;;;;;5.64;100.00;100589.91;20820927;28;20849;-55
2021/04/15 22:50:33;;;;;;;41.70;28.03;;;;;;;5.62;100.00;100597.06;20818522;28;20233;-54
2021/04/15 23:00:40;;;;;;;48.43;28.87;;;;;;;5.54;100.00;100586.78;20819489;28;20223;-54
2021/04/15 23:10:44;;;;;;;57.93;32.27;;;;;;;5.57;100.00;100580.47;20818510;28;20231;-56
2021/04/15 23:20:48;;;;;;;37.20;25.37;;;;;;;5.50;100.00;100573.72;20817786;28;20770;-54
2021/04/15 23:30:51;;;;;;;49.80;27.87;;;;;;;5.51;100.00;100548.97;20836031;28;20260;-56
2021/04/15 23:40:53;;;;;;;44.20;26.37;;;;;;;5.54;100.00;100548.84;20898565;28;20272;-55
2021/04/15 23:50:58;;;;;;;35.63;24.33;;;;;;;5.57;100.00;100546.06;20897909;28;20242;-55
